• Join FlightAware (Why Join?)
  • Login
  • US Flag 
12:24AM EDT


 

Airport Tracker/Info


-or-


 

Live Flight TrackerFlight Track Log ✈ N16112 ✈ 24-Apr-2013 ✈ KIAH - KTUS

Flight Track Log - Related Links

Times and Time Zones

All times are in EDT time to prevent confusion due to time zone crossing. See the N16112 flight status page for this flight to view local times or setup timezone preferences in your user account.

Time Position Orientation Groundspeed Altitude Reporting Facility
EDT Latitude Longitude Course Direction KTS MPH feet Rate Location/Type
10:36AM 29.9778 -95.3367 276° West 165 190 600  Level Houston Center
10:37AM 29.9722 -95.3664 258° West 188 216 1,600 1,680 Climbing Houston Center
10:37AM 29.9683 -95.3875 258° West 193 222 2,100 2,040 Climbing Houston Center
10:38AM 29.9719 -95.4622 273° West 228 262 4,500 2,460 Climbing Houston Center
10:39AM 30.0181 -95.6632 277° West  Level FlightAware Approximate
10:39AM 29.9842 -95.5372 281° West 242 278 7,200  Level Houston Center
10:40AM 30.0304 -95.7736 277° West  Level FlightAware Approximate
10:40AM 29.9978 -95.6200 281° West 259 298 9,500  Level Houston Center
10:41AM 30.0404 -95.8843 276° West  Level FlightAware Approximate
10:41AM 30.0128 -95.7078 281° West 276 318 10,900  Level Houston Center
10:42AM 30.0496 -95.9951 276° West  Level FlightAware Approximate
10:42AM 30.0306 -95.8147 281° West 335 386 12,000  Level Houston Center
10:43AM 30.0514 -95.9464 280° West 347 399 14,300 2,220 Climbing Houston Center
10:44AM 30.0694 -96.0578 281° West 337 388 16,600 1,920 Climbing Houston Center
10:45AM 30.0856 -96.1597 280° West 327 376 18,300 1,620 Climbing Houston Center
10:46AM 30.1014 -96.2628 280° West 328 377 20,000 1,440 Climbing Houston Center
10:47AM 30.1178 -96.3686 280° West 336 387 21,300 1,320 Climbing Houston Center
10:48AM 30.1353 -96.4861 280° West 340 391 22,800 1,320 Climbing Houston Center
10:49AM 30.1525 -96.6006 280° West 354 407 24,100 1,200 Climbing Houston Center
10:50AM 30.1706 -96.7106 281° West 347 399 25,400 1,200 Climbing Houston Center
10:51AM 30.1867 -96.8244 279° West 351 404 26,700 1,200 Climbing Houston Center
10:52AM 30.2036 -96.9339 280° West 345 397 28,000 1,200 Climbing Houston Center
10:54AM 30.2194 -97.0456 279° West 345 397 29,300 1,380 Climbing Houston Center
10:55AM 30.2378 -97.1714 280° West 336 387 30,900 1,380 Climbing Houston Center
10:56AM 30.2539 -97.2778 280° West 333 383 32,200 1,200 Climbing Houston Center
10:57AM 30.2686 -97.3839 279° West 331 381 33,500 1,200 Climbing Houston Center
10:58AM 30.2839 -97.4875 280° West 323 372 34,800 1,200 Climbing Houston Center
10:59AM 30.2981 -97.5878 279° West 313 360 36,000 540 Climbing Houston Center
11:00AM 30.3133 -97.6894 280° West 317 365 36,000  Level Houston Center
11:01AM 30.3278 -97.7972 279° West 331 381 36,000  Level Houston Center
11:02AM 30.3444 -97.9114 280° West 352 405 36,000  Level Houston Center
11:03AM 30.3611 -98.0300 279° West 367 422 36,000  Level Houston Center
11:04AM 30.3800 -98.1711 279° West 375 432 36,000  Level Houston Center
11:05AM 30.3967 -98.2922 279° West 377 434 36,000  Level Houston Center
11:06AM 30.4136 -98.4153 279° West 381 438 36,000  Level Houston Center
11:07AM 30.4300 -98.5392 279° West 384 442 36,000  Level Houston Center
11:08AM 30.4467 -98.6617 279° West 383 441 36,000  Level Houston Center
11:09AM 30.4633 -98.7853 279° West 383 441 36,000  Level Houston Center
11:10AM 30.4828 -98.9092 280° West 387 445 36,000  Level Houston Center
11:11AM 30.4969 -99.0328 278° West 386 444 36,000  Level Houston Center
11:12AM 30.5153 -99.1597 280° West 383 441 36,000  Level Houston Center
11:13AM 30.5311 -99.2814 279° West 383 441 36,000  Level Houston Center
11:14AM 30.5467 -99.4031 278° West 384 442 36,000  Level Houston Center
11:15AM 30.5647 -99.5489 278° West 383 441 36,000  Level Houston Center
11:16AM 30.5800 -99.6711 278° West 383 441 36,000  Level Houston Center
11:17AM 30.5950 -99.7928 278° West 383 441 36,000  Level Houston Center
11:18AM 30.6117 -99.9144 279° West 384 442 36,000  Level Houston Center
11:19AM 30.6258 -100.0367 278° West 384 442 36,000  Level Houston Center
11:20AM 30.6436 -100.1800 278° West 380 437 36,000  Level Houston Center
11:21AM 30.6583 -100.3014 278° West 385 443 36,000  Level Houston Center
11:22AM 30.6725 -100.4233 278° West 389 448 36,000  Level Houston Center
11:23AM 30.6869 -100.5450 278° West 395 455 36,000  Level Houston Center
11:24AM 30.7003 -100.6658 277° West 386 444 36,000  Level Houston Center
11:26AM 30.7178 -100.8119 278° West 383 441 36,000  Level Houston Center
11:27AM 30.7314 -100.9339 277° West 383 441 36,000  Level Houston Center
11:28AM 30.7464 -101.0556 278° West 385 443 36,000  Level Houston Center
11:29AM 30.7606 -101.1758 278° West 382 440 36,000  Level Houston Center
11:30AM 30.7764 -101.2981 279° West 383 441 36,000  Level Houston Center
11:31AM 30.7878 -101.4225 276° West 388 447 36,000  Level Houston Center
11:32AM 30.8033 -101.5697 277° West 387 445 36,000  Level Houston Center
11:33AM 30.8181 -101.7000 278° West 383 441 36,000  Level Houston Center
11:33AM 30.8264 -101.7722 278° West 384 442 36,000  Level Albuquerque Center
11:34AM 30.8397 -101.8953 277° West 384 442 36,000  Level Albuquerque Center
11:35AM 30.8522 -102.0194 277° West 386 444 36,000  Level Albuquerque Center
11:36AM 30.8653 -102.1436 277° West 385 443 36,000  Level Albuquerque Center
11:38AM 30.8786 -102.2678 277° West 385 443 36,000  Level Albuquerque Center
11:39AM 30.8917 -102.3928 277° West 386 444 36,000  Level Albuquerque Center
11:40AM 30.9044 -102.5175 277° West 386 444 36,000  Level Albuquerque Center
11:41AM 30.9200 -102.6672 277° West 386 444 36,000  Level Albuquerque Center
11:42AM 30.9331 -102.7917 277° West 386 444 36,000  Level Albuquerque Center
11:43AM 30.9450 -102.9156 276° West 385 443 36,000  Level Albuquerque Center
11:44AM 30.9681 -103.0386 282° West 389 448 36,000  Level Albuquerque Center
11:45AM 31.0008 -103.1581 288° West 387 445 36,000  Level Albuquerque Center
11:46AM 31.0347 -103.2797 288° West 392 451 36,000  Level Albuquerque Center
11:47AM 31.0678 -103.3997 288° West 391 450 36,000  Level Albuquerque Center
11:48AM 31.1064 -103.5439 287° West 390 449 36,000  Level Albuquerque Center
11:49AM 31.1389 -103.6631 288° West 388 447 36,000  Level Albuquerque Center
11:50AM 31.1719 -103.7786 289° West 389 448 36,000  Level Albuquerque Center
11:51AM 31.2031 -103.8994 287° West 390 449 36,000  Level Albuquerque Center
11:52AM 31.2347 -104.0200 287° West 390 449 36,000  Level Albuquerque Center
11:53AM 31.2744 -104.1639 288° West 390 449 36,000  Level Albuquerque Center
11:54AM 31.3061 -104.2856 287° West 392 451 36,000  Level Albuquerque Center
11:55AM 31.3381 -104.4044 287° West 388 447 36,000  Level Albuquerque Center
11:56AM 31.3692 -104.5253 287° West 391 450 36,000  Level Albuquerque Center
11:57AM 31.4022 -104.6464 288° West 392 451 36,000  Level Albuquerque Center
11:58AM 31.4383 -104.7911 286° West 390 449 36,000  Level Albuquerque Center
11:59AM 31.4706 -104.9117 287° West 391 450 36,000  Level Albuquerque Center
12:00PM 31.5017 -105.0342 287° West 393 452 36,000  Level Albuquerque Center
12:01PM 31.5339 -105.1558 287° West 394 453 36,000  Level Albuquerque Center
12:02PM 31.5644 -105.2772 286° West 393 452 36,000  Level Albuquerque Center
12:03PM 31.6025 -105.4247 287° West 395 455 36,000  Level Albuquerque Center
12:04PM 31.6325 -105.5492 286° West 398 458 36,000  Level Albuquerque Center
12:05PM 31.6636 -105.6714 287° West 394 453 36,000  Level Albuquerque Center
12:06PM 31.6942 -105.7917 287° West 387 445 36,000  Level Albuquerque Center
12:07PM 31.7253 -105.9158 286° West 396 456 36,000  Level Albuquerque Center
12:09PM 31.7561 -106.0378 287° West 391 450 36,000  Level Albuquerque Center
12:10PM 31.7922 -106.1831 286° West 387 445 36,000  Level Albuquerque Center
12:11PM 31.8203 -106.3044 285° West 386 444 36,000  Level Albuquerque Center
12:12PM 31.8350 -106.4289 278° West 384 442 36,000  Level Albuquerque Center
12:13PM 31.8494 -106.5528 278° West 383 441 36,000  Level Albuquerque Center
12:14PM 31.8633 -106.6775 278° West 384 442 36,000  Level Albuquerque Center
12:15PM 31.8778 -106.8006 278° West 380 437 36,000  Level Albuquerque Center
12:16PM 31.8925 -106.9244 278° West 380 437 36,000  Level Albuquerque Center
12:17PM 31.9092 -107.0733 278° West 381 438 36,000  Level Albuquerque Center
12:18PM 31.9228 -107.1986 277° West 383 441 36,000  Level Albuquerque Center
12:19PM 31.9361 -107.3242 277° West 384 442 36,000  Level Albuquerque Center
12:20PM 31.9492 -107.4472 277° West 382 440 36,000  Level Albuquerque Center
12:21PM 31.9633 -107.5731 278° West 384 442 36,000  Level Albuquerque Center
12:22PM 31.9778 -107.6975 278° West 384 442 36,000  Level Albuquerque Center
12:23PM 31.9903 -107.8231 277° West 383 441 36,000  Level Albuquerque Center
12:24PM 32.0061 -107.9722 277° West 385 443 36,000  Level Albuquerque Center
12:25PM 32.0194 -108.0994 277° West 388 447 36,000  Level Albuquerque Center
12:26PM 32.0314 -108.2164 277° West 385 443 36,000  Level Albuquerque Center
12:27PM 32.0453 -108.3411 278° West 386 444 36,000  Level Albuquerque Center
12:28PM 32.0603 -108.4903 277° West 385 443 36,000 -60 Level Albuquerque Center
12:29PM 32.0719 -108.6161 276° West 387 445 35,900 -480 Descending Albuquerque Center
12:30PM 32.0850 -108.7419 277° West 388 447 35,000 -960 Descending Albuquerque Center
12:31PM 32.0969 -108.8683 276° West 390 449 34,000 -540 Descending Albuquerque Center
12:32PM 32.1100 -108.9939 277° West 389 448 34,000 -720 Level Albuquerque Center
12:33PM 32.1242 -109.1453 276° West 389 448 32,600 -1,800 Descending Albuquerque Center
12:34PM 32.1367 -109.2733 277° West 392 451 30,300 -2,280 Descending Albuquerque Center
12:35PM 32.1533 -109.4036 279° West 400 460 27,900 -2,280 Descending Albuquerque Center
12:36PM 32.1692 -109.5361 278° West 408 470 25,700 -1,920 Descending Albuquerque Center
12:37PM 32.1864 -109.6697 279° West 412 474 24,000 -1,860 Descending Albuquerque Center
12:38PM 32.2044 -109.8247 278° West 404 465 21,900 -2,160 Descending Albuquerque Center
12:40PM 32.1994 -109.9525 267° West 395 455 19,600 -2,280 Descending Albuquerque Center
12:41PM 32.1869 -110.0767 263° West 388 447 17,300 -2,340 Descending Albuquerque Center
12:41PM 32.1758 -110.1689 262° West 375 432 15,600 -2,160 Descending Albuquerque Center
12:42PM 32.1750 -110.1975 268° West 381 438 15,100 -2,280 Descending Albuquerque Center
12:42PM 32.1642 -110.2808 261° West 369 425 13,600 -2,040 Descending Albuquerque Center
12:43PM 32.1719 -110.3125 286° West 369 425 13,000 -2,220 Descending Albuquerque Center
12:43PM 32.1867 -110.3931 282° West 363 418 11,400 -1,860 Descending Albuquerque Center
12:44PM 32.1969 -110.4286 289° West 368 423 11,100 -420 Descending Albuquerque Center
12:44PM 32.2122 -110.5094 283° West 366 421 11,000 -120 Descending Albuquerque Center
12:45PM 32.2269 -110.5658 287° West 363 418 11,000 -300 Level Albuquerque Center
12:45PM 32.2364 -110.6214 281° West 355 409 10,700 -780 Descending Albuquerque Center
12:46PM 32.2422 -110.6722 278° West 344 396 10,200 -1,200 Descending Albuquerque Center
12:46PM 32.2436 -110.7331 272° West 295 339 9,400 -1,500 Descending Albuquerque Center
12:47PM 32.2489 -110.7639 281° West 305 351 8,700 -2,040 Descending Albuquerque Center
12:47PM 32.2528 -110.8236 274° West 284 327 7,400 -1,560 Descending Albuquerque Center
12:48PM 32.2614 -110.8556 288° West 291 335 7,100 -300 Descending Albuquerque Center
12:48PM 32.2758 -110.9183 285° West 277 319 7,100 -120 Level Albuquerque Center
12:49PM 32.2839 -110.9414 292° West 284 327 7,000 -780 Descending Albuquerque Center
12:50PM 32.3064 -111.0311 287° West 262 302 6,100 -480 Descending Albuquerque Center
12:51PM 32.2969 -111.1144 262° West 250 288 6,100 -60 Level Albuquerque Center
12:52PM 32.2439 -111.0958 163° South 252 290 6,000 -540 Descending Albuquerque Center
12:52PM 32.2178 -111.0600 131° Southeast 238 274 5,300 -1,260 Descending Albuquerque Center
12:53PM 32.2025 -111.0350 126° Southeast 238 274 4,600 -1,200 Descending Albuquerque Center
12:53PM 32.1789 -111.0150 144° Southeast 197 227 4,100 -1,020 Descending Albuquerque Center